createdAt,value
2023-04-13T00:02:11.822Z,7.78
2023-04-13T00:04:40.056Z,7.93
2023-04-13T00:07:07.809Z,7.85
2023-04-13T00:09:35.701Z,7.65
2023-04-13T00:12:04.361Z,8.77
2023-04-13T00:14:34.940Z,8.20
2023-04-13T00:17:03.430Z,7.97
2023-04-13T00:19:34.957Z,8.98
2023-04-13T00:22:04.783Z,7.43
2023-04-13T00:24:34.171Z,7.15
2023-04-13T00:27:02.106Z,7.75
2023-04-13T00:29:30.367Z,8.48
2023-04-13T00:31:58.212Z,8.70
2023-04-13T00:34:26.331Z,7.97
2023-04-13T00:36:54.537Z,8.77
2023-04-13T00:39:23.569Z,8.70
2023-04-13T00:41:51.743Z,9.07
2023-04-13T00:44:20.164Z,7.70
2023-04-13T00:46:50.633Z,7.68
2023-04-13T00:49:18.966Z,8.20
2023-04-13T00:51:48.195Z,7.62
2023-04-13T00:54:17.294Z,7.95
2023-04-13T00:56:46.987Z,8.90
2023-04-13T00:59:17.669Z,9.75
2023-04-13T01:01:47.209Z,8.38
2023-04-13T01:04:20.564Z,8.38
2023-04-13T01:07:21.713Z,8.80
2023-04-13T01:10:37.004Z,8.40
2023-04-13T01:13:21.596Z,8.23
2023-04-13T01:16:04.196Z,8.98
2023-04-13T01:18:35.833Z,8.85
2023-04-13T01:21:06.040Z,8.73
2023-04-13T01:24:05.577Z,9.10
2023-04-13T01:27:07.231Z,9.25
2023-04-13T01:29:36.805Z,7.68
2023-04-13T01:32:07.322Z,8.65
2023-04-13T01:34:36.221Z,8.82
2023-04-13T01:37:08.560Z,9.18
2023-04-13T01:39:40.288Z,9.10
2023-04-13T01:42:09.551Z,10.18
2023-04-13T01:44:38.425Z,9.30
2023-04-13T01:47:17.469Z,9.25
2023-04-13T01:49:56.109Z,9.18
2023-04-13T01:52:28.190Z,8.85
2023-04-13T01:54:57.203Z,9.27
2023-04-13T01:57:26.473Z,9.68
2023-04-13T01:59:54.696Z,8.35
2023-04-13T02:02:23.585Z,9.20
2023-04-13T02:04:51.950Z,7.80
2023-04-13T02:07:19.912Z,8.90
2023-04-13T02:09:48.146Z,8.77
2023-04-13T02:12:17.281Z,9.32
2023-04-13T02:14:45.088Z,9.50
2023-04-13T02:17:12.948Z,9.52
2023-04-13T02:19:41.363Z,8.85
2023-04-13T02:22:09.675Z,8.98
2023-04-13T02:24:37.480Z,9.60
2023-04-13T02:27:05.794Z,9.40
2023-04-13T02:29:34.693Z,9.60
2023-04-13T02:32:02.852Z,9.65
2023-04-13T02:34:31.033Z,8.70
2023-04-13T02:37:00.419Z,8.57
2023-04-13T02:39:28.980Z,8.02
2023-04-13T02:41:58.294Z,8.07
2023-04-13T02:44:29.005Z,9.15
2023-04-13T02:46:57.434Z,8.55
2023-04-13T02:49:25.366Z,8.40
2023-04-13T02:51:53.894Z,8.50
2023-04-13T02:54:25.375Z,9.45
2023-04-13T02:56:54.206Z,8.70
2023-04-13T02:59:22.857Z,8.20
2023-04-13T03:01:50.738Z,9.43
2023-04-13T03:04:20.023Z,7.45
2023-04-13T03:06:47.851Z,9.60
2023-04-13T03:09:16.442Z,7.45
2023-04-13T03:11:45.530Z,7.82
2023-04-13T03:14:22.369Z,8.95
2023-04-13T03:16:52.137Z,8.23
2023-04-13T03:19:20.800Z,8.18
2023-04-13T03:21:50.349Z,8.27
2023-04-13T03:24:19.287Z,7.75
2023-04-13T03:26:47.337Z,7.60
2023-04-13T03:29:15.546Z,7.93
2023-04-13T03:31:44.107Z,8.23
2023-04-13T03:34:12.539Z,7.82
2023-04-13T03:36:41.749Z,7.65
2023-04-13T03:39:10.871Z,7.32
2023-04-13T03:41:39.144Z,7.32
2023-04-13T03:44:09.247Z,6.65
2023-04-13T03:46:38.296Z,8.23
2023-04-13T03:49:13.168Z,6.80
2023-04-13T03:51:41.515Z,7.45
2023-04-13T03:54:09.400Z,7.43
2023-04-13T03:56:37.646Z,7.57
2023-04-13T03:59:06.290Z,6.72
2023-04-13T04:01:34.029Z,6.97
2023-04-13T04:04:02.535Z,6.80
2023-04-13T04:06:31.447Z,6.93
2023-04-13T04:09:00.805Z,7.18
2023-04-13T04:11:29.426Z,6.03
2023-04-13T04:13:57.477Z,7.40
2023-04-13T04:16:26.269Z,7.18
2023-04-13T04:18:55.793Z,6.12
2023-04-13T04:21:24.596Z,5.82
2023-04-13T04:23:52.617Z,5.70
2023-04-13T04:26:26.208Z,5.97
2023-04-13T04:29:03.085Z,6.85
2023-04-13T04:31:37.355Z,6.78
2023-04-13T04:34:05.871Z,6.25
2023-04-13T04:36:34.322Z,6.37
2023-04-13T04:39:05.188Z,6.20
2023-04-13T04:41:37.950Z,5.93
2023-04-13T04:44:08.576Z,6.90
2023-04-13T04:46:38.863Z,6.15
2023-04-13T04:49:08.140Z,5.95
2023-04-13T04:51:37.484Z,6.12
2023-04-13T04:54:05.533Z,6.30
2023-04-13T04:56:34.355Z,5.85
2023-04-13T04:59:02.164Z,6.10
2023-04-13T05:01:31.047Z,5.40
2023-04-13T05:04:02.400Z,6.43
2023-04-13T05:06:34.016Z,6.40
2023-04-13T05:09:04.688Z,6.33
2023-04-13T05:11:32.894Z,6.47
2023-04-13T05:14:02.752Z,6.60
2023-04-13T05:16:32.173Z,7.00
2023-04-13T05:19:00.772Z,6.30
2023-04-13T05:21:30.014Z,6.43
2023-04-13T05:23:58.622Z,5.80
2023-04-13T05:26:29.116Z,6.57
2023-04-13T05:28:57.830Z,7.18
2023-04-13T05:31:29.066Z,6.35
2023-04-13T05:33:58.093Z,6.30
2023-04-13T05:36:27.013Z,6.80
2023-04-13T05:38:57.512Z,7.68
2023-04-13T05:41:26.727Z,8.10
2023-04-13T05:43:54.830Z,7.47
2023-04-13T05:46:23.019Z,6.93
2023-04-13T05:48:51.866Z,8.07
2023-04-13T05:51:19.907Z,5.97
2023-04-13T05:53:47.743Z,8.82
2023-04-13T05:56:16.047Z,7.57
2023-04-13T05:58:44.213Z,7.78
2023-04-13T06:01:13.098Z,7.68
2023-04-13T06:03:42.601Z,7.32
2023-04-13T06:06:10.880Z,7.00
2023-04-13T06:08:40.319Z,7.05
2023-04-13T06:11:08.489Z,7.37
2023-04-13T06:13:37.600Z,7.20
2023-04-13T06:16:05.703Z,6.25
2023-04-13T06:18:33.984Z,7.20
2023-04-13T06:21:02.007Z,6.57
2023-04-13T06:23:29.926Z,6.50
2023-04-13T06:25:59.142Z,8.15
2023-04-13T06:28:29.542Z,7.20
2023-04-13T06:30:57.797Z,7.30
2023-04-13T06:33:26.672Z,6.87
2023-04-13T06:35:54.987Z,6.47
2023-04-13T06:38:23.564Z,5.68
2023-04-13T06:40:52.506Z,7.10
2023-04-13T06:43:28.997Z,6.07
2023-04-13T06:46:01.908Z,6.60
2023-04-13T06:48:31.145Z,6.30
2023-04-13T06:51:00.225Z,6.00
2023-04-13T06:53:28.514Z,6.12
2023-04-13T06:55:57.379Z,6.15
2023-04-13T06:58:25.729Z,5.72
2023-04-13T07:00:53.656Z,6.10
2023-04-13T07:03:21.919Z,6.28
2023-04-13T07:05:50.351Z,5.97
2023-04-13T07:08:19.731Z,6.10
2023-04-13T07:10:54.756Z,6.72
2023-04-13T07:13:24.695Z,5.97
2023-04-13T07:15:53.413Z,6.07
2023-04-13T07:18:21.646Z,6.47
2023-04-13T07:20:50.092Z,6.15
2023-04-13T07:23:19.201Z,6.18
2023-04-13T07:25:47.065Z,6.75
2023-04-13T07:28:15.960Z,6.45
2023-04-13T07:30:45.175Z,6.07
2023-04-13T07:33:13.625Z,5.43
2023-04-13T07:35:41.727Z,5.47
2023-04-13T07:38:10.966Z,5.60
2023-04-13T07:40:38.864Z,5.53
2023-04-13T07:43:08.084Z,5.05
2023-04-13T07:45:37.343Z,6.07
2023-04-13T07:48:06.806Z,6.12
2023-04-13T07:50:44.010Z,6.30
2023-04-13T07:53:12.500Z,6.20
2023-04-13T07:55:41.374Z,5.15
2023-04-13T07:58:09.854Z,6.72
2023-04-13T08:00:37.954Z,5.80
2023-04-13T08:03:07.415Z,5.62
2023-04-13T08:05:37.142Z,6.10
2023-04-13T08:08:05.311Z,5.18
2023-04-13T08:10:33.734Z,6.32
2023-04-13T08:13:02.678Z,6.10
2023-04-13T08:15:30.736Z,5.90
2023-04-13T08:18:01.305Z,6.87
2023-04-13T08:20:30.353Z,5.75
2023-04-13T08:23:02.522Z,5.85
2023-04-13T08:25:30.418Z,5.68
2023-04-13T08:27:58.806Z,5.93
2023-04-13T08:30:27.526Z,5.87
2023-04-13T08:32:56.098Z,7.75
2023-04-13T08:35:24.838Z,6.20
2023-04-13T08:37:54.422Z,6.53
2023-04-13T08:40:23.077Z,6.40
2023-04-13T08:42:53.804Z,5.45
2023-04-13T08:45:31.381Z,5.60
2023-04-13T08:48:04.902Z,5.82
2023-04-13T08:50:33.345Z,6.30
2023-04-13T08:53:02.321Z,5.95
2023-04-13T08:55:30.318Z,6.35
2023-04-13T08:58:04.044Z,5.43
2023-04-13T09:00:33.011Z,6.12
2023-04-13T09:03:07.019Z,5.90
2023-04-13T09:05:43.264Z,5.78
2023-04-13T09:10:42.551Z,7.20
2023-04-13T09:13:10.988Z,5.45
2023-04-13T09:15:39.362Z,5.95
2023-04-13T09:18:10.417Z,6.43
2023-04-13T09:20:39.771Z,6.43
2023-04-13T09:23:16.409Z,5.65
2023-04-13T09:25:45.602Z,7.90
2023-04-13T09:28:20.380Z,6.87
2023-04-13T09:30:48.431Z,5.85
2023-04-13T09:33:17.200Z,6.07
2023-04-13T09:35:45.070Z,6.37
2023-04-13T09:38:15.707Z,5.82
2023-04-13T09:40:51.939Z,5.35
2023-04-13T09:43:20.858Z,6.43
2023-04-13T09:45:49.131Z,5.15
2023-04-13T09:48:19.527Z,5.72
2023-04-13T09:50:59.720Z,5.40
2023-04-13T09:53:31.469Z,6.32
2023-04-13T09:56:00.471Z,5.53
2023-04-13T09:58:29.215Z,5.70
2023-04-13T10:00:57.112Z,6.20
2023-04-13T10:03:27.462Z,6.10
2023-04-13T10:06:00.151Z,6.12
2023-04-13T10:11:01.983Z,6.93
2023-04-13T10:13:38.166Z,6.35
2023-04-13T10:16:43.510Z,4.97
2023-04-13T10:19:20.571Z,5.97
2023-04-13T10:21:52.019Z,6.10
2023-04-13T10:24:21.827Z,5.45
2023-04-13T10:26:55.629Z,5.68
2023-04-13T10:29:31.310Z,6.53
2023-04-13T10:32:03.959Z,5.85
2023-04-13T10:34:35.278Z,5.65
2023-04-13T10:37:07.676Z,5.85
2023-04-13T10:39:36.471Z,6.18
2023-04-13T10:42:06.131Z,5.37
2023-04-13T10:44:48.103Z,5.10
2023-04-13T10:47:23.659Z,5.40
2023-04-13T10:49:53.484Z,5.47
2023-04-13T10:52:21.867Z,6.25
2023-04-13T10:54:50.619Z,5.70
2023-04-13T10:57:19.516Z,5.50
2023-04-13T10:59:58.747Z,7.20
2023-04-13T11:02:33.164Z,6.60
2023-04-13T11:05:02.630Z,4.93
2023-04-13T11:07:30.735Z,5.68
2023-04-13T11:12:32.505Z,6.55
2023-04-13T11:15:01.377Z,7.75
2023-04-13T11:17:31.366Z,5.80
2023-04-13T11:19:59.646Z,5.10
2023-04-13T11:22:29.175Z,5.40
2023-04-13T11:25:10.239Z,6.07
2023-04-13T11:27:38.631Z,4.82
2023-04-13T11:30:09.989Z,5.75
2023-04-13T11:32:43.616Z,4.97
2023-04-13T11:35:15.001Z,5.93
2023-04-13T11:37:47.301Z,4.47
2023-04-13T11:40:20.537Z,4.95
2023-04-13T11:42:59.048Z,5.03
2023-04-13T11:45:30.733Z,5.37
2023-04-13T11:48:00.152Z,5.10
2023-04-13T11:50:28.374Z,6.07
2023-04-13T11:52:57.130Z,6.40
2023-04-13T11:55:26.328Z,4.82
2023-04-13T11:57:54.940Z,4.85
2023-04-13T12:00:28.121Z,5.60
2023-04-13T12:03:03.162Z,5.57
2023-04-13T12:05:34.447Z,4.78
2023-04-13T12:08:04.615Z,5.28
2023-04-13T12:10:41.233Z,5.80
2023-04-13T12:18:46.844Z,5.28
2023-04-13T12:21:20.710Z,4.82
2023-04-13T12:23:55.577Z,5.18
2023-04-13T12:29:04.868Z,5.53
2023-04-13T12:31:39.988Z,5.95
2023-04-13T12:34:08.719Z,5.70
2023-04-13T12:36:37.157Z,5.82
2023-04-13T12:39:05.300Z,5.97
2023-04-13T12:41:33.683Z,17.12
2023-04-13T12:44:01.660Z,21.33
2023-04-13T12:46:29.521Z,7.12
2023-04-13T12:48:57.849Z,5.57
2023-04-13T12:51:26.910Z,5.30
2023-04-13T12:53:54.659Z,4.72
2023-04-13T12:56:22.731Z,6.95
2023-04-13T12:58:50.631Z,4.50
2023-04-13T13:01:18.505Z,7.43
2023-04-13T13:03:46.722Z,4.80
2023-04-13T13:06:14.449Z,5.03
2023-04-13T13:08:42.109Z,4.78
2023-04-13T13:11:10.253Z,4.97
2023-04-13T13:13:37.977Z,5.82
2023-04-13T13:16:05.965Z,5.07
2023-04-13T13:18:47.037Z,4.75
2023-04-13T13:21:18.449Z,4.90
2023-04-13T13:23:46.645Z,4.85
2023-04-13T13:28:46.597Z,4.55
2023-04-13T13:31:15.726Z,4.53
2023-04-13T13:33:43.787Z,4.22
2023-04-13T13:36:14.491Z,4.20
2023-04-13T13:38:43.719Z,4.20
2023-04-13T13:41:12.019Z,4.20
2023-04-13T13:43:40.401Z,4.37
2023-04-13T13:46:08.315Z,4.37
2023-04-13T13:48:36.817Z,3.53
2023-04-13T13:51:07.467Z,3.50
2023-04-13T13:53:36.306Z,3.33
2023-04-13T13:56:04.582Z,3.62
2023-04-13T13:58:32.473Z,2.70
2023-04-13T14:01:00.611Z,3.05
2023-04-13T14:03:28.827Z,3.65
2023-04-13T14:05:56.726Z,3.53
2023-04-13T14:08:24.392Z,3.78
2023-04-13T14:10:52.564Z,3.20
2023-04-13T14:13:20.312Z,3.95
2023-04-13T14:15:48.058Z,3.47
2023-04-13T14:18:16.251Z,3.03
2023-04-13T14:20:44.357Z,2.80
2023-04-13T14:23:12.547Z,2.50
2023-04-13T14:25:41.494Z,2.80
2023-04-13T14:28:09.661Z,2.67
2023-04-13T14:30:37.996Z,2.50
2023-04-13T14:33:06.743Z,2.87
2023-04-13T14:35:35.402Z,2.60
2023-04-13T14:38:03.316Z,2.20
2023-04-13T14:40:32.137Z,1.80
2023-04-13T14:42:59.979Z,2.30
2023-04-13T14:45:27.856Z,3.03
2023-04-13T14:47:55.981Z,2.30
2023-04-13T14:50:23.758Z,2.40
2023-04-13T14:52:52.599Z,2.45
2023-04-13T14:55:20.803Z,2.28
2023-04-13T14:57:48.551Z,1.90
2023-04-13T15:00:22.393Z,2.50
2023-04-13T15:02:53.108Z,2.03
2023-04-13T15:05:21.400Z,2.20
2023-04-13T15:07:51.242Z,2.40
2023-04-13T15:10:19.692Z,2.05
2023-04-13T15:12:48.535Z,1.90
2023-04-13T15:15:16.585Z,2.20
2023-04-13T15:17:44.986Z,2.28
2023-04-13T15:20:12.766Z,1.87
2023-04-13T15:22:40.687Z,2.60
2023-04-13T15:25:09.242Z,2.12
2023-04-13T15:27:37.121Z,1.90
2023-04-13T15:30:05.459Z,2.80
2023-04-13T15:32:41.416Z,1.77
2023-04-13T15:35:09.393Z,1.42
2023-04-13T15:37:37.732Z,1.87
2023-04-13T15:40:07.978Z,1.70
2023-04-13T15:42:36.422Z,2.08
2023-04-13T15:45:07.305Z,3.17
2023-04-13T15:47:36.372Z,2.10
2023-04-13T15:50:05.103Z,2.20
2023-04-13T15:52:33.785Z,1.52
2023-04-13T15:55:01.987Z,1.98
2023-04-13T15:57:31.788Z,3.08
2023-04-13T15:59:59.597Z,1.90
2023-04-13T16:02:27.599Z,1.75
2023-04-13T16:04:56.125Z,2.12
2023-04-13T16:07:24.040Z,1.98
2023-04-13T16:09:57.440Z,1.83
2023-04-13T16:12:33.640Z,1.80
2023-04-13T16:15:12.322Z,2.10
2023-04-13T16:17:44.257Z,1.42
2023-04-13T16:20:22.217Z,2.05
2023-04-13T16:22:53.263Z,1.90
2023-04-13T16:25:21.422Z,1.85
2023-04-13T16:27:49.404Z,1.98
2023-04-13T16:30:21.112Z,2.00
2023-04-13T16:32:50.270Z,1.45
2023-04-13T16:35:18.610Z,1.65
2023-04-13T16:37:46.463Z,1.73
2023-04-13T16:40:15.574Z,1.77
2023-04-13T16:42:44.208Z,1.90
2023-04-13T16:45:14.710Z,1.52
2023-04-13T16:47:43.919Z,2.17
2023-04-13T16:50:12.772Z,1.58
2023-04-13T16:52:40.977Z,1.60
2023-04-13T16:55:20.011Z,1.85
2023-04-13T16:57:48.085Z,1.87
2023-04-13T17:00:16.641Z,1.75
2023-04-13T17:02:44.979Z,1.70
2023-04-13T17:05:13.191Z,2.87
2023-04-13T17:07:44.099Z,2.42
2023-04-13T17:10:13.839Z,2.30
2023-04-13T17:12:42.123Z,2.80
2023-04-13T17:15:10.627Z,1.98
2023-04-13T17:17:38.755Z,1.85
2023-04-13T17:20:07.759Z,1.90
2023-04-13T17:22:35.660Z,2.05
2023-04-13T17:25:03.485Z,2.25
2023-04-13T17:27:31.825Z,2.30
2023-04-13T17:29:59.643Z,2.30
2023-04-13T17:32:27.630Z,2.75
2023-04-13T17:34:57.608Z,2.00
2023-04-13T17:37:25.649Z,2.58
2023-04-13T17:39:53.491Z,1.95
2023-04-13T17:42:21.636Z,2.00
2023-04-13T17:44:49.493Z,2.15
2023-04-13T17:47:17.961Z,1.77
2023-04-13T17:49:46.363Z,2.20
2023-04-13T17:52:14.009Z,2.17
2023-04-13T17:54:41.712Z,1.52
2023-04-13T17:57:09.851Z,1.55
2023-04-13T17:59:37.777Z,1.60
2023-04-13T18:02:06.044Z,2.00
2023-04-13T18:04:34.481Z,1.58
2023-04-13T18:07:02.480Z,1.95
2023-04-13T18:09:31.595Z,1.73
2023-04-13T18:11:59.733Z,1.95
2023-04-13T18:14:27.478Z,1.70
2023-04-13T18:16:55.259Z,1.60
2023-04-13T18:19:23.456Z,2.28
2023-04-13T18:21:51.529Z,1.42
2023-04-13T18:24:19.456Z,1.90
2023-04-13T18:26:47.642Z,1.60
2023-04-13T18:29:15.522Z,1.42
2023-04-13T18:31:43.497Z,1.92
2023-04-13T18:34:14.117Z,1.45
2023-04-13T18:36:42.514Z,1.87
2023-04-13T18:39:10.533Z,1.62
2023-04-13T18:41:41.047Z,1.70
2023-04-13T18:44:10.248Z,1.33
2023-04-13T18:46:38.466Z,1.40
2023-04-13T18:49:06.206Z,1.45
2023-04-13T18:51:33.930Z,1.52
2023-04-13T18:54:02.975Z,1.70
2023-04-13T18:56:30.942Z,1.33
2023-04-13T18:58:58.770Z,1.50
2023-04-13T19:01:27.060Z,1.50
2023-04-13T19:03:55.029Z,1.40
2023-04-13T19:06:22.892Z,1.58
2023-04-13T19:08:51.081Z,1.27
2023-04-13T19:11:19.938Z,1.48
2023-04-13T19:13:48.431Z,1.50
2023-04-13T19:16:16.866Z,1.50
2023-04-13T19:18:45.018Z,1.48
2023-04-13T19:21:13.121Z,1.60
2023-04-13T19:23:41.426Z,1.67
2023-04-13T19:26:09.434Z,1.35
2023-04-13T19:28:37.396Z,1.25
2023-04-13T19:31:06.152Z,1.27
2023-04-13T19:33:35.291Z,1.45
2023-04-13T19:36:09.232Z,1.70
2023-04-13T19:38:37.712Z,1.65
2023-04-13T19:41:05.898Z,1.80
2023-04-13T19:43:33.852Z,1.17
2023-04-13T19:46:02.174Z,1.42
2023-04-13T19:48:30.212Z,1.48
2023-04-13T19:50:58.293Z,1.30
2023-04-13T19:53:26.782Z,1.23
2023-04-13T19:55:55.142Z,1.45
2023-04-13T19:58:23.160Z,1.58
2023-04-13T20:00:51.776Z,1.37
2023-04-13T20:03:20.898Z,1.40
2023-04-13T20:05:48.958Z,1.20
2023-04-13T20:08:16.890Z,1.35
2023-04-13T20:10:45.265Z,1.60
2023-04-13T20:13:13.506Z,1.85
2023-04-13T20:15:41.430Z,1.40
2023-04-13T20:18:09.798Z,1.70
2023-04-13T20:20:38.199Z,1.42
2023-04-13T20:23:08.288Z,1.00
2023-04-13T20:25:39.600Z,1.25
2023-04-13T20:28:10.251Z,1.17
2023-04-13T20:30:39.788Z,1.30
2023-04-13T20:33:07.765Z,0.98
2023-04-13T20:35:35.794Z,1.50
2023-04-13T20:38:05.526Z,1.42
2023-04-13T20:40:40.109Z,1.00
2023-04-13T20:43:08.796Z,1.30
2023-04-13T20:45:36.679Z,1.37
2023-04-13T20:50:36.134Z,1.00
2023-04-13T20:53:05.188Z,1.35
2023-04-13T20:55:33.673Z,1.27
2023-04-13T20:58:02.092Z,1.23
2023-04-13T21:00:30.205Z,1.10
2023-04-13T21:02:58.460Z,1.20
2023-04-13T21:05:26.854Z,1.33
2023-04-13T21:07:56.897Z,1.20
2023-04-13T21:10:24.993Z,1.20
2023-04-13T21:12:53.268Z,1.23
2023-04-13T21:15:21.290Z,1.05
2023-04-13T21:17:49.328Z,0.98
2023-04-13T21:20:17.570Z,1.10
2023-04-13T21:22:45.508Z,1.00
2023-04-13T21:25:13.306Z,1.33
2023-04-13T21:27:41.514Z,0.98
2023-04-13T21:30:09.638Z,0.98
2023-04-13T21:32:37.727Z,1.27
2023-04-13T21:35:06.622Z,1.20
2023-04-13T21:37:34.434Z,1.40
2023-04-13T21:40:02.546Z,1.30
2023-04-13T21:42:31.159Z,1.00
2023-04-13T21:44:59.290Z,1.10
2023-04-13T21:47:27.187Z,1.40
2023-04-13T21:49:55.418Z,1.48
2023-04-13T21:52:23.288Z,1.05
2023-04-13T21:54:51.768Z,1.23
2023-04-13T21:57:20.106Z,1.33
2023-04-13T21:59:47.872Z,1.20
2023-04-13T22:02:16.213Z,1.42
2023-04-13T22:04:44.405Z,1.33
2023-04-13T22:07:12.422Z,1.67
2023-04-13T22:09:40.296Z,1.40
2023-04-13T22:12:11.113Z,1.10
2023-04-13T22:14:38.944Z,1.60
2023-04-13T22:17:06.928Z,2.92
2023-04-13T22:19:35.096Z,1.48
2023-04-13T22:22:02.846Z,1.42
2023-04-13T22:24:30.664Z,1.00
2023-04-13T22:26:58.869Z,1.30
2023-04-13T22:29:26.748Z,1.20
2023-04-13T22:31:54.963Z,1.40
2023-04-13T22:34:23.068Z,1.25
2023-04-13T22:36:53.278Z,1.17
2023-04-13T22:39:21.161Z,1.08
2023-04-13T22:41:49.357Z,1.23
2023-04-13T22:44:17.254Z,1.45
2023-04-13T22:46:45.153Z,1.50
2023-04-13T22:49:13.354Z,1.35
2023-04-13T22:51:41.768Z,1.30
2023-04-13T22:54:09.590Z,1.27
2023-04-13T22:56:37.821Z,1.52
2023-04-13T22:59:05.617Z,1.30
2023-04-13T23:01:33.393Z,1.50
2023-04-13T23:04:02.774Z,1.45
2023-04-13T23:06:34.031Z,1.33
2023-04-13T23:09:02.589Z,1.45
2023-04-13T23:11:30.615Z,1.62
2023-04-13T23:13:58.323Z,1.50
2023-04-13T23:16:28.883Z,1.40
2023-04-13T23:18:57.034Z,1.60
2023-04-13T23:21:24.902Z,1.73
2023-04-13T23:23:53.089Z,1.50
2023-04-13T23:26:21.348Z,1.70
2023-04-13T23:28:49.118Z,1.55
2023-04-13T23:31:17.440Z,1.58
2023-04-13T23:33:45.474Z,1.48
2023-04-13T23:36:13.423Z,1.45
2023-04-13T23:38:42.017Z,1.98
2023-04-13T23:41:09.809Z,2.17
2023-04-13T23:43:37.744Z,1.62
2023-04-13T23:46:06.079Z,1.65
2023-04-13T23:48:33.910Z,1.70
2023-04-13T23:51:01.688Z,2.25
2023-04-13T23:53:30.019Z,1.55
2023-04-13T23:55:58.064Z,2.00
2023-04-13T23:58:25.997Z,1.70
